KCBK/CBK METAR and TAF weather

Enter ICAO airport designator
Station Type Date Time Source
KCBK METAR 2020/09/22 16:35 UTC NOAA

KCBK 221635Z AUTO 16005KT 10SM CLR 23/07 A3013 RMK AO2 PWINO


Station Type Date Time Source
KCBK Decoded METAR 2020/09/22 16:35 UTC NOAA

Station name not available
Sep 22, 2020 - 12:35 PM EDT / 2020.09.22 1635 UTC
Wind: from the SSE (160 degrees) at 6 MPH (5 KT):0
Visibility: 10 mile(s):0
Sky conditions: clear
Temperature: 73 F (23 C)
Dew Point: 44 F (7 C)
Relative Humidity: 35%
Pressure (altimeter): 30.13 in. Hg (1020 hPa)
ob: KCBK 221635Z AUTO 16005KT 10SM CLR 23/07 A3013 RMK AO2 PWINO
cycle: 16

Station Type Date Time Source
KCBK TAF UTC NOAA

Error!

Example: see airport list